Tiempo atmosférico en la estación meteorológica de Cebreros, Ávila (850 m.)



Fecha
DESCASC
Temp. máxima en grados centígrados (hora)
DESCASC
Temp. mínima en grados centígrados (hora)
DESCASC
Temp. media en grados centígrados
DESCASC
Racha de viento máxima en m/sg (hora)
DESCASC
Velocidad máxima media en intervalos de 10 minutos(hora)
DESCASC
Precipitaciones diarias en mm
DESCASC
Precipitaciones de 00:00 a 06:00 en mm
DESCASC
Precipitaciones de 06:00 a 12:00 en mm
DESCASC
Precipitaciones de 12:00 a 18:00 en mm
DESCASC
Precipitaciones de 18:00 a 24:00 en mm
DESCASC
22-01-2020 -- (--) -- (--) -- -- (--) -- (--) -- 0.2 1.8 -- --
21-01-2020 8 (15:50) 2.7 (09:20) 5.4 -- (--) -- (--) -- 0.2 0 -- 0.8
20-01-2020 4.7 (23:40) -1.4 (07:10) 1.6 17.78 (00:10) 7.22 (12:00) 1.2 0 0 1 0.2
19-01-2020 5.7 (00:00) 0.5 (00:00) 3.1 21.11 (22:00) 9.17 (22:20) 1.8 1.4 0.4 0 0
18-01-2020 -- (--) -- (--) -- -- (--) -- (--) -- -- 1.8 0 --
17-01-2020 -- (--) -- (--) -- -- (--) -- (--) -- -- -- -- --
16-01-2020 -- (--) -- (--) -- -- (--) -- (--) -- -- -- -- --
15-01-2020 -- (--) -- (--) -- -- (--) -- (--) -- -- -- -- --
14-01-2020 -- (--) -- (--) -- -- (--) -- (--) -- 0 0 -- --
13-01-2020 9.1 (14:40) -1.6 (-00:0) 3.8 -- (--) -- (--) 0 0 0 0 0
12-01-2020 12.5 (14:10) -0.2 (00:00) 6.1 -- (--) -- (--) -- 0 0 -- 0
11-01-2020 -- (--) -- (--) -- -- (--) -- (--) -- 0 0 0 --
10-01-2020 -- (--) -- (--) -- -- (--) -- (--) -- -- 0 0 0
09-01-2020 -- (--) -- (--) -- -- (--) -- (--) -- -- -- -- --
08-01-2020 -- (--) -- (--) -- -- (--) -- (--) -- 0 -- -- --
07-01-2020 -- (--) -- (--) -- -- (--) -- (--) -- -- -- -- 0
06-01-2020 -- (--) -- (--) -- -- (--) -- (--) -- 0 -- -- --
05-01-2020 -- (--) -- (--) -- -- (--) -- (--) -- -- -- -- --
04-01-2020 -- (--) -- (--) -- -- (--) -- (--) -- -- -- 0 --
03-01-2020 -- (--) -- (--) -- -- (--) -- (--) -- -- -- -- 0
02-01-2020 -- (--) -- (--) -- -- (--) -- (--) -- -- -- -- --
01-01-2020 -- (--) -- (--) -- -- (--) -- (--) -- -- -- -- --
31-12-2019 -- (--) -- (--) -- -- (--) -- (--) -- -- -- -- --
30-12-2019 -- (--) -- (--) -- -- (--) -- (--) -- -- -- -- --
29-12-2019 -- (--) -- (--) -- -- (--) -- (--) -- -- -- -- --
28-12-2019 -- (--) -- (--) -- -- (--) -- (--) -- -- -- -- --
27-12-2019 -- (--) -- (--) -- -- (--) -- (--) -- -- -- -- --

Gráficas

Temp. máximas Temp. mínimas Temp. medias Precipitaciones Rachas de viento máximas Velocidades máximas media en intervalos de 10 minutos

Datos horarios

Fecha y hora oficial Temperatura (ºC) Velocidad del viento (km/h) Dirección del viento Racha (km/h) Dirección de racha Precipitación (mm) Presión (hPa) Tendencia (hPa) Humedad (%)
2020-01-25 23:00:00 5.4 5 Oeste 9 Oeste 0 -- -- 98
2020-01-25 22:00:00 5.1 3 Oeste 8 Noroeste 0 -- -- 98
2020-01-25 21:00:00 4.9 3 Oeste 6 Noroeste 0 -- -- 98
2020-01-25 20:00:00 5.5 0 Calma 6 Nordeste 0 -- -- 98
2020-01-25 19:00:00 5.8 5 Este 10 Este 0 -- -- 97
2020-01-25 18:00:00 6.3 5 Este 8 Nordeste 0 -- -- 96
2020-01-25 17:00:00 6.8 2 Sur 5 Sudeste 0.8 -- -- 96
2020-01-25 16:00:00 6.4 3 Sudoeste 9 Sudeste 1.4 -- -- 97
2020-01-25 15:00:00 6.2 7 Sudeste 20 Sudeste 0.2 -- -- 97
2020-01-25 14:00:00 6.8 7 Sudeste 18 Sudeste 0 -- -- 97
2020-01-25 13:00:00 6.9 7 Sudeste 17 Sudeste 0 -- -- 97
2020-01-25 12:00:00 6.1 10 Sudeste 19 Este 0.4 -- -- 98
2020-01-25 11:00:00 5.7 7 Sudeste 18 Este 1 -- -- 98
2020-01-25 10:00:00 5.3 8 Sudeste 19 Sudeste 1.2 -- -- 99
2020-01-25 09:00:00 5.1 7 Sudeste 19 Sudeste 0 -- -- 98
2020-01-25 08:00:00 5.1 9 Sudeste 21 Sudeste 0.6 -- -- 98
2020-01-25 07:00:00 4.6 0 Calma 8 Nordeste 1.2 -- -- 98
2020-01-25 06:00:00 4.4 4 Norte 9 Norte 1.6 -- -- 98
2020-01-25 05:00:00 4.6 4 Norte 16 Sudeste 0.6 -- -- 98
2020-01-25 04:00:00 5.2 7 Sudeste 14 Sudeste 1.4 -- -- 98
2020-01-25 03:00:00 5.2 3 Nordeste 8 Nordeste 0.8 -- -- 97
2020-01-25 02:00:00 5.1 2 Norte 6 Sudeste 0.4 -- -- 97
2020-01-25 01:00:00 5.1 4 Norte 8 Norte 0 -- -- 97
2020-01-25 00:00:00 5 3 Norte 8 Norte 0 -- -- 97
2020-01-24 23:00:00 4.9 4 Norte 8 Norte 0 -- -- 97
2020-01-24 22:00:00 5.1 3 Noroeste 6 Sudoeste 0 -- -- 97
2020-01-24 21:00:00 5.1 5 Norte 8 Noroeste 0 -- -- 97
2020-01-24 20:00:00 5.3 0 Calma 4 Nordeste 0 -- -- 97
2020-01-24 19:00:00 5.8 2 Este 6 Sur 0 -- -- 96
2020-01-24 18:00:00 6 0 Calma 6 Este 0 -- -- 96
2020-01-24 17:00:00 6.3 5 Nordeste 7 Este 0 -- -- 96
2020-01-24 16:00:00 6.2 3 Este 8 Nordeste 0 -- -- 96
2020-01-24 15:00:00 6.4 5 Nordeste 9 Nordeste 0 -- -- 96
2020-01-24 14:00:00 5.9 5 Sudeste 14 Sudeste 0 -- -- 97
2020-01-24 13:00:00 5.2 8 Sudeste 17 Sudeste 0.2 -- -- 98
2020-01-24 12:00:00 4.9 8 Sudeste 18 Sudeste 0.2 -- -- 98
2020-01-24 11:00:00 4.8 8 Sudeste 17 Sudeste 0.4 -- -- 98
2020-01-24 10:00:00 4.8 4 Este 13 Sudeste 1 -- -- 97
2020-01-24 09:00:00 4.5 6 Sudeste 19 Sudeste 1.2 -- -- 97
2020-01-24 08:00:00 4.5 6 Este 20 Este 1.2 -- -- 97
2020-01-24 07:00:00 4.9 8 Este 22 Este 1.6 -- -- 96
2020-01-24 06:00:00 5.1 9 Sudeste 19 Sudeste 1.2 -- -- 96
2020-01-24 05:00:00 4.9 2 Sur 10 Este 0 -- -- 96
2020-01-24 04:00:00 4.7 3 Sudeste 8 Noroeste 0 -- -- 97
2020-01-24 03:00:00 4.8 0 Calma 6 Oeste 0 -- -- 97
2020-01-24 02:00:00 4.5 0 Calma 4 Norte 0 -- -- 97
2020-01-24 01:00:00 5 4 Sur 10 Sur 0.2 -- -- 96
2020-01-24 00:00:00 5.4 2 Sur 9 Este 0.4 -- -- 94
2020-01-23 23:00:00 5.7 5 Este 12 Sudeste 0.2 -- -- 93
2020-01-23 22:00:00 5.7 4 Sudoeste 9 Sudeste 0.4 -- -- 90
2020-01-23 21:00:00 6.2 2 Nordeste 11 Sudeste 0 -- -- 85
2020-01-23 20:00:00 6.5 8 Sudeste 13 Este 0 -- -- 82
2020-01-23 19:00:00 6.7 -- -- -- -- -- -- -- --
2020-01-23 18:00:00 7.1 7 Sudeste 15 Sudeste 0 -- -- 79
2020-01-23 17:00:00 7.6 8 Sudeste 18 Sudeste 0 -- -- 76
2020-01-23 16:00:00 8.1 3 Sudoeste 10 Sudoeste 0 -- -- 75
2020-01-23 15:00:00 8.2 4 Sudoeste 10 Sur 0 -- -- 74
2020-01-23 14:00:00 7.1 4 Sur 8 Sur 0 -- -- 78
2020-01-23 13:00:00 5.9 4 Sudoeste 9 Sur 0 -- -- 81
2020-01-23 12:00:00 4.7 2 Sudoeste 6 Oeste 0 -- -- 89
2020-01-23 11:00:00 3.7 -- -- -- -- 0 -- -- 89
2020-01-23 10:00:00 4.2 2 Sudoeste 6 Oeste 0 -- -- 88
2020-01-23 09:00:00 3.8 3 Sudoeste 5 Sudoeste 0 -- -- 90
2020-01-23 08:00:00 3.7 2 Sudoeste 5 Noroeste 0 -- -- 89
2020-01-23 07:00:00 3.7 -- -- -- -- 0 -- -- 90
2020-01-23 06:00:00 4 3 Sudoeste 8 Oeste 0 -- -- 87
2020-01-23 05:00:00 4.1 0 Calma 8 Sudoeste 0 -- -- 87
2020-01-23 04:00:00 4.5 0 Calma 8 Nordeste 0 -- -- 84
2020-01-23 03:00:00 4.5 0 Calma 5 Sudeste 0 -- -- 86
2020-01-23 02:00:00 4.7 3 Norte 7 Norte 0 -- -- 85
2020-01-23 01:00:00 -- -- -- -- -- -- -- -- --
2020-01-23 00:00:00 -- -- -- -- -- -- -- -- --
2020-01-22 23:00:00 4.2 -- -- -- -- -- -- -- --
2020-01-22 22:00:00 -- -- -- -- -- -- -- -- --
2020-01-22 21:00:00 -- -- -- -- -- -- -- -- --
2020-01-22 20:00:00 -- -- -- -- -- -- -- -- --
2020-01-22 19:00:00 -- -- -- -- -- -- -- -- --
2020-01-22 18:00:00 -- -- -- -- -- -- -- -- --
2020-01-22 17:00:00 -- -- -- -- -- -- -- -- --
2020-01-22 16:00:00 -- -- -- -- -- -- -- -- --
2020-01-22 15:00:00 -- -- -- -- -- -- -- -- --
2020-01-22 14:00:00 -- -- -- -- -- -- -- -- --
2020-01-22 13:00:00 -- -- -- -- -- -- -- -- --
2020-01-22 12:00:00 4.4 7 Este 18 Este 0 -- -- 92
2020-01-22 11:00:00 3.8 3 Este 28 Este 0.2 -- -- 93
2020-01-22 10:00:00 3.2 12 Nordeste 29 Este 0.8 -- -- 93
2020-01-22 09:00:00 3.9 9 Este 21 Este -- -- -- 88
2020-01-22 08:00:00 4.5 10 Este 20 Este 0 -- -- 82
2020-01-22 07:00:00 4.2 4 Norte 15 Nordeste 0.2 -- -- 86
2020-01-22 06:00:00 4.5 13 Nordeste 32 Este 0 -- -- 82
2020-01-22 05:00:00 5.6 12 Nordeste 33 Nordeste 0 -- -- 74
2020-01-22 04:00:00 5.8 16 Nordeste 31 Este 0.2 -- -- 74
2020-01-22 03:00:00 5.9 13 Nordeste 29 Este 0 -- -- 76
2020-01-22 02:00:00 6.1 13 Nordeste 30 Nordeste 0 -- -- 73
2020-01-22 01:00:00 6.6 12 Nordeste 23 Nordeste 0 -- -- 72
2020-01-22 00:00:00 5.3 5 Nordeste 11 Norte 0 -- -- 82
2020-01-21 23:00:00 5.2 5 Norte 17 Nordeste 0 -- -- 81
2020-01-21 22:00:00 5.1 12 Nordeste 42 Nordeste 0 -- -- 81
2020-01-21 21:00:00 5.5 24 Nordeste 42 Nordeste 0 -- -- 79
2020-01-21 20:00:00 4.9 15 Nordeste 33 Nordeste 0.2 -- -- 88
2020-01-21 19:00:00 4.2 10 Norte 18 Norte 0.6 -- -- 91
2020-01-21 18:00:00 4.1 4 Sudoeste 18 Nordeste -- -- -- 91
2020-01-21 17:00:00 6.3 12 Nordeste 27 Nordeste 0 -- -- 78
2020-01-21 16:00:00 8 10 Nordeste 37 Nordeste 0 -- -- 66
2020-01-21 15:00:00 7.1 17 Nordeste 39 Nordeste 0 -- -- 69
2020-01-21 14:00:00 6 -- -- -- -- -- -- -- --
2020-01-21 13:00:00 5.6 6 Nordeste 21 Norte 0 -- -- 74
2020-01-21 12:00:00 4.4 6 Norte 19 Noroeste 0 -- -- 80
2020-01-21 11:00:00 4.1 5 Nordeste 14 Norte 0 -- -- 77
2020-01-21 10:00:00 4.6 4 Norte 16 Sur 0 -- -- 74
2020-01-21 09:00:00 3.9 6 Norte 27 Nordeste 0 -- -- 71
2020-01-21 08:00:00 5.2 6 Nordeste 22 Nordeste 0 -- -- 66
2020-01-21 07:00:00 3.5 4 Sudoeste 23 Nordeste 0 -- -- 76
2020-01-21 06:00:00 4.8 13 Nordeste 19 Nordeste 0 -- -- 71
2020-01-21 05:00:00 4.4 12 Nordeste 35 Nordeste 0 -- -- 77
2020-01-21 04:00:00 4.1 12 Nordeste 30 Nordeste 0 -- -- 76
2020-01-21 03:00:00 3.6 9 Nordeste 27 Noroeste 0 -- -- 79
2020-01-21 02:00:00 3.5 12 Nordeste 32 Nordeste 0.2 -- -- 83
2020-01-21 01:00:00 4.1 15 Nordeste 38 Nordeste 0 -- -- 77
2020-01-21 00:00:00 4.4 15 Nordeste 37 Nordeste 0 -- -- 72
2020-01-20 23:00:00 3.8 7 Nordeste 26 Nordeste 0 -- -- 75
2020-01-20 22:00:00 3.5 13 Nordeste 28 Nordeste 0.2 -- -- 77
2020-01-20 21:00:00 3.2 15 Nordeste 30 Nordeste 0 -- -- 80
2020-01-20 20:00:00 2.6 9 Nordeste 25 Este 0 -- -- 82
2020-01-20 19:00:00 3.3 17 Nordeste 39 Nordeste 0 -- -- 76
2020-01-20 18:00:00 2.4 13 Norte 40 Noroeste 0 -- -- 69
2020-01-20 17:00:00 1.3 15 Noroeste 35 Norte 0 -- -- 78
2020-01-20 16:00:00 0.6 17 Norte 38 Noroeste 0.2 -- -- 80
2020-01-20 15:00:00 1.3 18 Norte 44 Norte 0.6 -- -- 65
2020-01-20 14:00:00 0.8 15 Norte 44 Noroeste 0.2 -- -- 63
2020-01-20 13:00:00 1.5 20 Noroeste 46 Norte 0 -- -- 59
2020-01-20 12:00:00 1 26 Noroeste 48 Noroeste 0 -- -- 52
2020-01-20 11:00:00 0.2 22 Noroeste 53 Norte 0 -- -- 53
2020-01-20 10:00:00 -0.2 22 Noroeste 51 Noroeste 0 -- -- 55
2020-01-20 09:00:00 -0.6 20 Norte 43 Norte 0 -- -- 57
2020-01-20 08:00:00 -1.1 15 Noroeste 44 Noroeste 0 -- -- 60
2020-01-20 07:00:00 -1.3 21 Noroeste 50 Noroeste 0 -- -- 62
2020-01-20 06:00:00 -1 19 Norte 60 Norte 0 -- -- 60
2020-01-20 05:00:00 -0.9 17 Noroeste 50 Norte 0 -- -- 59
2020-01-20 04:00:00 -0.5 20 Norte 51 Norte 0 -- -- 58
2020-01-20 03:00:00 0 23 Norte 55 Noroeste 0 -- -- 55
2020-01-20 02:00:00 0.3 24 Norte 64 Norte 0 -- -- 53
2020-01-20 01:00:00 0.5 22 Norte 64 Norte 0 -- -- 54
2020-01-20 00:00:00 0.6 24 Norte 66 Noroeste 0 -- -- 59
2020-01-19 23:00:00 0.6 26 Norte 69 Norte 0 -- -- 59
2020-01-19 22:00:00 0.7 31 Norte 76 Norte 0 -- -- 59
2020-01-19 21:00:00 1 29 Norte 69 Noroeste 0 -- -- 59
2020-01-19 20:00:00 1.5 8 Nordeste 52 Nordeste 0 -- -- 59
2020-01-19 19:00:00 2.6 21 Nordeste 61 Nordeste 0 -- -- 57
2020-01-19 18:00:00 3.8 22 Norte 61 Norte 0 -- -- 58
2020-01-19 17:00:00 5 18 Norte 58 Norte 0 -- -- 57
2020-01-19 16:00:00 5.3 18 Norte 49 Norte 0 -- -- 57
2020-01-19 15:00:00 4.8 21 Norte 55 Norte 0 -- -- 59
2020-01-19 14:00:00 4.5 18 Norte 58 Oeste 0 -- -- 64
2020-01-19 13:00:00 5.7 19 Norte 53 Nordeste 0 -- -- 61
2020-01-19 12:00:00 4.7 17 Norte 69 Norte 0 -- -- 68
2020-01-19 11:00:00 4.4 21 Norte 67 Norte 0 -- -- 73
2020-01-19 10:00:00 4.1 21 Norte 62 Noroeste 0 -- -- 81
2020-01-19 09:00:00 3.4 22 Noroeste 51 Noroeste 0.4 -- -- 87
2020-01-19 08:00:00 3.2 23 Noroeste 46 Noroeste 0 -- -- 87
2020-01-19 07:00:00 4.1 18 Noroeste 44 Noroeste 0 -- -- 83
2020-01-19 06:00:00 4.2 7 Noroeste 28 Norte 0 -- -- 84
2020-01-19 05:00:00 4.2 8 Norte 32 Noroeste 0.4 -- -- 87
2020-01-19 04:00:00 4.3 9 Norte 25 Noroeste 0.2 -- -- 89
2020-01-19 03:00:00 4.7 15 Noroeste 48 Noroeste 0.2 -- -- 85
2020-01-19 02:00:00 4.8 13 Noroeste 48 Noroeste 0 -- -- 85
2020-01-19 01:00:00 4.8 13 Noroeste 40 Noroeste 0.6 -- -- 86
2020-01-19 00:00:00 5.7 15 Norte 35 Oeste 0.2 -- -- 80
2020-01-18 23:00:00 5.7 10 Oeste 40 Noroeste 0.6 -- -- 88
2020-01-18 22:00:00 7.7 9 Oeste 25 Oeste 0 -- -- 78
2020-01-18 21:00:00 7 20 Oeste 54 Sudoeste 0.2 -- -- 83
2020-01-18 20:00:00 5.6 -- -- -- -- -- -- -- --
2020-01-18 19:00:00 6.7 6 Norte 14 Nordeste 0 -- -- 95
2020-01-18 18:00:00 6.9 10 Nordeste 16 Nordeste 0 -- -- 95
2020-01-18 17:00:00 7.2 7 Nordeste 18 Nordeste 0 -- -- 95
2020-01-18 16:00:00 7.3 7 Este 29 Sur 0 -- -- 94
2020-01-18 15:00:00 8.4 14 Sudeste 26 Este 0 -- -- 94
2020-01-18 14:00:00 6.9 5 Este 12 Este 0 -- -- 97
2020-01-18 13:00:00 5.7 4 Nordeste 10 Nordeste 0 -- -- 97
2020-01-18 12:00:00 5.3 3 Norte 12 Este 0 -- -- 97
2020-01-18 11:00:00 4.9 3 Nordeste 6 Este 0.2 -- -- 97
2020-01-18 10:00:00 4.5 4 Este 10 Nordeste 0.2 -- -- 96
2020-01-18 09:00:00 3.9 3 Nordeste 8 Norte 1.2 -- -- 96
2020-01-18 08:00:00 4.1 4 Norte 8 Norte 0 -- -- 94
2020-01-18 07:00:00 4.4 5 Sudoeste 12 Sudoeste 0.2 -- -- 90
2020-01-18 06:00:00 5.1 -- -- -- -- 0 -- -- 87
2020-01-18 05:00:00 -- -- -- -- -- -- -- -- --
2020-01-18 04:00:00 -- -- -- -- -- -- -- -- --
2020-01-18 03:00:00 -- -- -- -- -- -- -- -- --
2020-01-18 02:00:00 -- -- -- -- -- -- -- -- --
2020-01-18 01:00:00 -- -- -- -- -- -- -- -- --
2020-01-18 00:00:00 -- -- -- -- -- -- -- -- --
2020-01-17 23:00:00 -- -- -- -- -- -- -- -- --
2020-01-17 22:00:00 -- -- -- -- -- -- -- -- --
2020-01-17 21:00:00 -- -- -- -- -- -- -- -- --
2020-01-17 20:00:00 -- -- -- -- -- -- -- -- --
2020-01-17 19:00:00 5.9 -- -- -- -- 0 -- -- 73
2020-01-17 18:00:00 8.8 7 Norte 17 Norte 0 -- -- 59
2020-01-17 17:00:00 9.9 4 Sudoeste 15 Sudeste 0 -- -- 71
2020-01-17 16:00:00 -- -- -- -- -- -- -- -- --
2020-01-17 15:00:00 12.2 4 Sur 17 Oeste 0 -- -- 64
2020-01-17 14:00:00 9.2 4 Sudoeste 27 Noroeste 0 -- -- 75
2020-01-17 13:00:00 8.3 9 Oeste 29 Noroeste 0 -- -- 73
2020-01-17 12:00:00 7.8 10 Noroeste 29 Oeste 0 -- -- 80
2020-01-17 11:00:00 -- -- -- -- -- -- -- -- --
2020-01-17 10:00:00 -- -- -- -- -- -- -- -- --
2020-01-17 09:00:00 -- -- -- -- -- -- -- -- --
2020-01-17 08:00:00 -- -- -- -- -- -- -- -- --
2020-01-17 07:00:00 -- -- -- -- -- -- -- -- --
2020-01-17 06:00:00 -- -- -- -- -- -- -- -- --
2020-01-17 05:00:00 -- -- -- -- -- -- -- -- --
2020-01-17 04:00:00 -- -- -- -- -- -- -- -- --
2020-01-17 03:00:00 -- -- -- -- -- -- -- -- --
2020-01-17 02:00:00 -- -- -- -- -- -- -- -- --
2020-01-17 01:00:00 -- -- -- -- -- -- -- -- --
2020-01-17 00:00:00 -- -- -- -- -- -- -- -- --
2020-01-16 23:00:00 -- -- -- -- -- -- -- -- --
2020-01-16 22:00:00 -- -- -- -- -- -- -- -- --
2020-01-16 21:00:00 -- -- -- -- -- -- -- -- --
2020-01-16 20:00:00 -- -- -- -- -- -- -- -- --
2020-01-16 19:00:00 -- -- -- -- -- -- -- -- --
2020-01-16 18:00:00 -- -- -- -- -- -- -- -- --
2020-01-16 17:00:00 -- -- -- -- -- -- -- -- --
2020-01-16 16:00:00 -- -- -- -- -- -- -- -- --
2020-01-16 15:00:00 -- -- -- -- -- -- -- -- --
2020-01-16 14:00:00 -- -- -- -- -- -- -- -- --
2020-01-16 13:00:00 -- -- -- -- -- -- -- -- --
2020-01-16 12:00:00 -- -- -- -- -- -- -- -- --
2020-01-16 11:00:00 -- -- -- -- -- -- -- -- --
2020-01-16 10:00:00 -- -- -- -- -- -- -- -- --
2020-01-16 09:00:00 -- -- -- -- -- -- -- -- --
2020-01-16 08:00:00 -- -- -- -- -- -- -- -- --
2020-01-16 07:00:00 -- -- -- -- -- -- -- -- --
2020-01-16 06:00:00 -- -- -- -- -- -- -- -- --
2020-01-16 05:00:00 -- -- -- -- -- -- -- -- --
2020-01-16 04:00:00 -- -- -- -- -- -- -- -- --
2020-01-16 03:00:00 -- -- -- -- -- -- -- -- --
2020-01-16 02:00:00 -- -- -- -- -- -- -- -- --
2020-01-16 01:00:00 -- -- -- -- -- -- -- -- --
2020-01-16 00:00:00 -- -- -- -- -- -- -- -- --
2020-01-15 23:00:00 -- -- -- -- -- -- -- -- --
2020-01-15 22:00:00 -- -- -- -- -- -- -- -- --
2020-01-15 21:00:00 -- -- -- -- -- -- -- -- --
2020-01-15 20:00:00 -- -- -- -- -- -- -- -- --
2020-01-15 19:00:00 -- -- -- -- -- -- -- -- --
2020-01-15 18:00:00 -- -- -- -- -- -- -- -- --
2020-01-15 17:00:00 -- -- -- -- -- -- -- -- --
2020-01-15 16:00:00 -- -- -- -- -- -- -- -- --
2020-01-15 15:00:00 -- -- -- -- -- -- -- -- --
2020-01-15 14:00:00 -- -- -- -- -- -- -- -- --
2020-01-15 13:00:00 -- -- -- -- -- -- -- -- --
2020-01-15 12:00:00 -- -- -- -- -- -- -- -- --
2020-01-15 11:00:00 -- -- -- -- -- -- -- -- --
2020-01-15 10:00:00 -- -- -- -- -- -- -- -- --
2020-01-15 09:00:00 -- -- -- -- -- -- -- -- --
2020-01-15 08:00:00 -- -- -- -- -- -- -- -- --
2020-01-15 07:00:00 -- -- -- -- -- -- -- -- --
2020-01-15 06:00:00 -- -- -- -- -- -- -- -- --
2020-01-15 05:00:00 -- -- -- -- -- -- -- -- --
2020-01-15 04:00:00 -- -- -- -- -- -- -- -- --
2020-01-15 03:00:00 -- -- -- -- -- -- -- -- --
2020-01-15 02:00:00 -- -- -- -- -- -- -- -- --
2020-01-15 01:00:00 -- -- -- -- -- -- -- -- --
2020-01-15 00:00:00 -- -- -- -- -- -- -- -- --
2020-01-14 23:00:00 -- -- -- -- -- -- -- -- --
2020-01-14 22:00:00 -- -- -- -- -- -- -- -- --
2020-01-14 21:00:00 -- -- -- -- -- -- -- -- --
2020-01-14 20:00:00 -- -- -- -- -- -- -- -- --
2020-01-14 19:00:00 -- -- -- -- -- -- -- -- --
2020-01-14 18:00:00 -- -- -- -- -- -- -- -- --
2020-01-14 17:00:00 -- -- -- -- -- -- -- -- --
2020-01-14 16:00:00 -- -- -- -- -- -- -- -- --
2020-01-14 15:00:00 -- -- -- -- -- -- -- -- --
2020-01-14 14:00:00 8.1 4 Sudoeste 11 Sudoeste 0 -- -- 58
2020-01-14 13:00:00 7.8 4 Sudoeste 10 Sur 0 -- -- 58
2020-01-14 12:00:00 6.5 5 Sur 9 Sur 0 -- -- 62
2020-01-14 11:00:00 4.8 4 Sudeste 8 Sur 0 -- -- 63
2020-01-14 10:00:00 3 0 Calma 3 Sudeste 0 -- -- 70
2020-01-14 09:00:00 -2.9 0 Calma 6 Noroeste 0 -- -- 94
2020-01-14 08:00:00 -3.2 0 Calma 6 Sudoeste 0 -- -- 94
2020-01-14 07:00:00 -3.1 0 Calma 4 Nordeste 0 -- -- 93
2020-01-14 06:00:00 -3 0 Calma 6 Noroeste 0 -- -- 92
2020-01-14 05:00:00 -1.8 0 Calma 4 Sudoeste 0 -- -- 91
2020-01-14 04:00:00 -1.4 0 Calma 6 Noroeste 0 -- -- 93
2020-01-14 03:00:00 -1.8 2 Norte 9 Nordeste 0 -- -- 92
2020-01-14 02:00:00 -1.4 4 Norte 13 Noroeste 0 -- -- 89
2020-01-14 01:00:00 -- -- -- -- -- -- -- -- --
2020-01-14 00:00:00 -- -- -- -- -- -- -- -- --
2020-01-13 23:00:00 -- -- -- -- -- -- -- -- --
2020-01-13 22:00:00 0.7 -- -- -- -- 0 -- -- 84
2020-01-13 21:00:00 2 6 Noroeste 11 Norte 0 -- -- 81
2020-01-13 20:00:00 2.6 6 Noroeste 10 Norte 0 -- -- 79
2020-01-13 19:00:00 3 5 Norte 10 Sudeste 0 -- -- 76
2020-01-13 18:00:00 5.2 -- -- -- -- 0 -- -- 65
2020-01-13 17:00:00 7 5 Este 14 Sudeste 0 -- -- 61
2020-01-13 16:00:00 8 6 Este 13 Nordeste 0 -- -- 57
2020-01-13 15:00:00 8.3 3 Sudeste 10 Sudoeste 0 -- -- 50
2020-01-13 14:00:00 8 4 Sudeste 10 Sudoeste 0 -- -- 51
2020-01-13 13:00:00 7 5 Sur 10 Sur 0 -- -- 51
2020-01-13 12:00:00 5.4 2 Sudeste 7 Sudoeste 0 -- -- 53
2020-01-13 11:00:00 3.5 0 Calma 6 Sudoeste 0 -- -- 61
2020-01-13 10:00:00 0.4 0 Calma 5 Noroeste 0 -- -- 71
2020-01-13 09:00:00 -0.8 0 Calma 3 Oeste 0 -- -- 75
2020-01-13 08:00:00 -0.7 0 Calma 2 Noroeste 0 -- -- 75
2020-01-13 07:00:00 -0.9 0 Calma 7 Sudoeste 0 -- -- 76
2020-01-13 06:00:00 -1.6 2 Noroeste 5 Norte 0 -- -- 75
2020-01-13 05:00:00 -1.3 0 Calma 12 Noroeste 0 -- -- 76
2020-01-13 04:00:00 0.3 0 Calma 5 Noroeste 0 -- -- 77
2020-01-13 03:00:00 0.3 3 Noroeste 8 Oeste 0 -- -- 74
2020-01-13 02:00:00 0.9 0 Calma 4 Sudoeste 0 -- -- 69
2020-01-13 01:00:00 -0.1 0 Calma 8 Noroeste 0 -- -- 66
2020-01-13 00:00:00 0.9 0 Calma 4 Noroeste 0 -- -- 64
2020-01-12 23:00:00 1.1 0 Calma 8 Noroeste 0 -- -- 60
2020-01-12 22:00:00 2.7 3 Noroeste 5 Sudoeste 0 -- -- 53
2020-01-12 21:00:00 3.2 0 Calma 5 Noroeste 0 -- -- 67
2020-01-12 20:00:00 3.6 2 Oeste 10 Noroeste 0 -- -- 55
2020-01-12 19:00:00 5.3 3 Sudoeste 4 Oeste 0 -- -- 64
2020-01-12 18:00:00 6.9 3 Sudoeste 8 Sudeste 0 -- -- 58
2020-01-12 17:00:00 9.1 4 Sur 10 Sudeste 0 -- -- 49
2020-01-12 16:00:00 10.4 -- -- -- -- -- -- -- --
2020-01-12 15:00:00 11.6 5 Sudoeste 12 Sudeste 0 -- -- 37
2020-01-12 14:00:00 11.6 3 Sudeste 11 Sur 0 -- -- 33
2020-01-12 13:00:00 9.8 4 Sur 9 Sudeste 0 -- -- 35
2020-01-12 12:00:00 7.8 5 Este 10 Este 0 -- -- 35
2020-01-12 11:00:00 5.3 6 Nordeste 10 Este 0 -- -- 40
2020-01-12 10:00:00 4.1 3 Nordeste 9 Nordeste 0 -- -- 39
2020-01-12 09:00:00 1.9 3 Norte 12 Sudoeste 0 -- -- 41
2020-01-12 08:00:00 2.9 3 Noroeste 14 Oeste 0 -- -- 38
2020-01-12 07:00:00 4.1 4 Sudoeste 18 Sudoeste 0 -- -- 35
2020-01-12 06:00:00 3.5 5 Sudoeste 18 Oeste 0 -- -- 43
2020-01-12 05:00:00 2.1 4 Sudoeste 11 Sur 0 -- -- 52
2020-01-12 04:00:00 2.4 5 Oeste 11 Noroeste 0 -- -- 53
2020-01-12 03:00:00 0.5 3 Norte 8 Noroeste 0 -- -- 65
2020-01-12 02:00:00 0.6 4 Noroeste 9 Nordeste 0 -- -- 65
2020-01-12 01:00:00 1.4 4 Norte 11 Oeste 0 -- -- 66
2020-01-12 00:00:00 1.4 4 Nordeste 18 Oeste 0 -- -- 65
2020-01-11 23:00:00 5 10 Oeste 16 Oeste 0 -- -- 53
2020-01-11 22:00:00 2.4 3 Noroeste 7 Norte 0 -- -- 67
2020-01-11 21:00:00 -- -- -- -- -- -- -- -- --
2020-01-11 20:00:00 -- -- -- -- -- -- -- -- --
2020-01-11 19:00:00 -- -- -- -- -- -- -- -- --
2020-01-11 18:00:00 6.8 -- -- -- -- 0 -- -- 52
2020-01-11 17:00:00 9 5 Sudeste 13 Sudeste 0 -- -- 41
2020-01-11 16:00:00 10.7 5 Sur 12 Sudeste 0 -- -- 36
2020-01-11 15:00:00 12 5 Sur 12 Sudoeste 0 -- -- 34
2020-01-11 14:00:00 12.4 -- -- -- -- 0 -- -- 34
2020-01-11 13:00:00 12.2 4 Sudoeste 10 Sur 0 -- -- 40
2020-01-11 12:00:00 9.5 5 Sur 10 Sur 0 -- -- 51
2020-01-11 11:00:00 10 2 Sudeste 6 Nordeste 0 -- -- 51
2020-01-11 10:00:00 4.7 5 Nordeste 13 Noroeste 0 -- -- 64
2020-01-11 09:00:00 0.2 4 Norte 13 Noroeste 0 -- -- 82
2020-01-11 08:00:00 0.2 3 Nordeste 11 Noroeste 0 -- -- 81
2020-01-11 07:00:00 0.6 3 Norte 13 Noroeste 0 -- -- 81
2020-01-11 06:00:00 2.8 10 Noroeste 30 Oeste 0 -- -- 73
2020-01-11 05:00:00 3 16 Oeste 29 Noroeste 0 -- -- 74
2020-01-11 04:00:00 2.9 12 Oeste 33 Oeste 0 -- -- 76
2020-01-11 03:00:00 3.6 11 Noroeste 38 Noroeste 0 -- -- 72
2020-01-11 02:00:00 3.6 17 Oeste 31 Noroeste 0 -- -- 71
2020-01-11 01:00:00 3.6 7 Sudoeste 25 Noroeste 0 -- -- 72
2020-01-11 00:00:00 3.8 5 Este 31 Norte 0 -- -- 69
2020-01-10 23:00:00 4.6 13 Norte 38 Norte 0 -- -- 70
2020-01-10 22:00:00 5.1 17 Norte 37 Norte 0 -- -- 69
2020-01-10 21:00:00 5.3 15 Norte 37 Norte 0 -- -- 68
2020-01-10 20:00:00 5.4 13 Norte 32 Noroeste 0 -- -- 67
2020-01-10 19:00:00 5.8 10 Norte 40 Norte 0 -- -- 62
2020-01-10 18:00:00 6.3 15 Norte 38 Norte 0 -- -- 60
2020-01-10 17:00:00 7.3 13 Norte 35 Nordeste 0 -- -- 55
2020-01-10 16:00:00 8.4 13 Norte 36 Norte 0 -- -- 50
2020-01-10 15:00:00 9 17 Nordeste 44 Nordeste 0 -- -- 51
2020-01-10 14:00:00 8.8 24 Nordeste 49 Nordeste 0 -- -- 49
2020-01-10 13:00:00 9.2 16 Norte 36 Noroeste 0 -- -- 51
2020-01-10 12:00:00 8.9 13 Norte 35 Noroeste 0 -- -- 56
2020-01-10 11:00:00 6.9 17 Norte 40 Noroeste 0 -- -- 62
2020-01-10 10:00:00 4.1 6 Norte 23 Noroeste 0 -- -- 73
2020-01-10 09:00:00 3.5 11 Norte 27 Noroeste 0 -- -- 73
2020-01-10 08:00:00 2.9 9 Norte 21 Norte 0 -- -- 74
2020-01-10 07:00:00 3.3 9 Nordeste 30 Noroeste 0 -- -- 73
2020-01-10 06:00:00 4.2 13 Oeste 30 Noroeste 0 -- -- 70
2020-01-10 05:00:00 4.8 6 Noroeste 36 Noroeste 0 -- -- 71
2020-01-10 04:00:00 -- -- -- -- -- -- -- -- --
2020-01-10 03:00:00 -- -- -- -- -- -- -- -- --
2020-01-10 02:00:00 -- -- -- -- -- -- -- -- --
2020-01-10 01:00:00 -- -- -- -- -- -- -- -- --
2020-01-10 00:00:00 -- -- -- -- -- -- -- -- --
2020-01-09 23:00:00 -- -- -- -- -- -- -- -- --
2020-01-09 22:00:00 -- -- -- -- -- -- -- -- --
2020-01-09 21:00:00 -- -- -- -- -- -- -- -- --
2020-01-09 20:00:00 -- -- -- -- -- -- -- -- --
2020-01-09 19:00:00 -- -- -- -- -- -- -- -- --
2020-01-09 18:00:00 -- -- -- -- -- -- -- -- --
2020-01-09 17:00:00 11.9 -- -- -- -- 0 -- -- 59
2020-01-09 16:00:00 14 6 Sur 14 Sudeste 0 -- -- 53
2020-01-09 15:00:00 15.7 7 Sur 27 Noroeste 0 -- -- 47
2020-01-09 14:00:00 -- -- -- -- -- -- -- -- --
2020-01-09 13:00:00 14 4 Sudeste 12 Sur 0 -- -- 49
2020-01-09 12:00:00 13.4 4 Sudoeste 10 Sudoeste 0 -- -- 50
2020-01-09 11:00:00 12.5 2 Sudoeste 8 Sudoeste 0 -- -- 52
2020-01-09 10:00:00 -- -- -- -- -- -- -- -- --
2020-01-09 09:00:00 -- -- -- -- -- -- -- -- --
2020-01-09 08:00:00 -- -- -- -- -- -- -- -- --
2020-01-09 07:00:00 -- -- -- -- -- -- -- -- --
2020-01-09 06:00:00 -- -- -- -- -- -- -- -- --
2020-01-09 05:00:00 -- -- -- -- -- -- -- -- --
2020-01-09 04:00:00 -- -- -- -- -- -- -- -- --
2020-01-09 03:00:00 -- -- -- -- -- -- -- -- --
2020-01-09 02:00:00 -- -- -- -- -- -- -- -- --
2020-01-09 01:00:00 -- -- -- -- -- -- -- -- --
2020-01-09 00:00:00 -- -- -- -- -- -- -- -- --
2020-01-08 23:00:00 -- -- -- -- -- -- -- -- --
2020-01-08 22:00:00 -- -- -- -- -- -- -- -- --
2020-01-08 21:00:00 -- -- -- -- -- -- -- -- --
2020-01-08 20:00:00 -- -- -- -- -- -- -- -- --
2020-01-08 19:00:00 -- -- -- -- -- -- -- -- --
2020-01-08 18:00:00 -- -- -- -- -- -- -- -- --
2020-01-08 17:00:00 -- -- -- -- -- -- -- -- --
2020-01-08 16:00:00 -- -- -- -- -- -- -- -- --
2020-01-08 15:00:00 -- -- -- -- -- -- -- -- --
2020-01-08 14:00:00 -- -- -- -- -- -- -- -- --
2020-01-08 13:00:00 -- -- -- -- -- -- -- -- --
2020-01-08 12:00:00 -- -- -- -- -- -- -- -- --
2020-01-08 11:00:00 -- -- -- -- -- -- -- -- --
2020-01-08 10:00:00 -- -- -- -- -- -- -- -- --
2020-01-08 09:00:00 6 4 Nordeste 9 Este 0 -- -- 31
2020-01-08 08:00:00 5.7 3 Norte 6 Oeste 0 -- -- 31
2020-01-08 07:00:00 5.9 3 Norte 7 Nordeste 0 -- -- 31
2020-01-08 06:00:00 5.4 3 Norte 15 Oeste 0 -- -- 34
2020-01-08 05:00:00 9.9 6 Oeste 21 Oeste 0 -- -- 22
2020-01-08 04:00:00 10.1 9 Oeste 22 Oeste 0 -- -- 25
2020-01-08 03:00:00 9.6 5 Sur 19 Oeste 0 -- -- 31
2020-01-08 02:00:00 10.2 4 Sudoeste 22 Oeste 0 -- -- 29
2020-01-08 01:00:00 12 7 Oeste 16 Noroeste 0 -- -- 22
2020-01-08 00:00:00 10 4 Nordeste 10 Noroeste 0 -- -- 28
2020-01-07 23:00:00 8.5 3 Norte 9 Noroeste 0 -- -- 32
2020-01-07 22:00:00 9 0 Calma 11 Este 0 -- -- 30
2020-01-07 21:00:00 8.5 4 Noroeste 9 Noroeste 0 -- -- 32
2020-01-07 20:00:00 9.8 4 Nordeste 14 Noroeste 0 -- -- 28
2020-01-07 19:00:00 9.6 2 Norte 7 Sudoeste 0 -- -- 30
2020-01-07 18:00:00 10.6 4 Sudoeste 8 Sur 0 -- -- 57
2020-01-07 17:00:00 13.8 6 Sudoeste 12 Sudoeste 0 -- -- 46
2020-01-07 16:00:00 16.8 5 Sur 13 Oeste 0 -- -- 31
2020-01-07 15:00:00 16.8 5 Sur 14 Sur 0 -- -- 32
2020-01-07 14:00:00 -- -- -- -- -- -- -- -- --
2020-01-07 13:00:00 -- -- -- -- -- -- -- -- --
2020-01-07 12:00:00 -- -- -- -- -- -- -- -- --
2020-01-07 11:00:00 -- -- -- -- -- -- -- -- --
2020-01-07 10:00:00 -- -- -- -- -- -- -- -- --
2020-01-07 09:00:00 -- -- -- -- -- -- -- -- --
2020-01-07 08:00:00 -- -- -- -- -- -- -- -- --
2020-01-07 07:00:00 -- -- -- -- -- -- -- -- --
2020-01-07 06:00:00 -- -- -- -- -- -- -- -- --
2020-01-07 05:00:00 -- -- -- -- -- -- -- -- --
2020-01-07 04:00:00 4.2 2 Noroeste 6 Norte 0 -- -- 47
2020-01-07 03:00:00 5 0 Calma 9 Noroeste 0 -- -- 46
2020-01-07 02:00:00 5.7 3 Norte 7 Noroeste 0 -- -- 43
2020-01-07 01:00:00 -- -- -- -- -- -- -- -- --
2020-01-07 00:00:00 10.4 14 Noroeste 24 Noroeste 0 -- -- 33
2020-01-06 23:00:00 -- -- -- -- -- -- -- -- --
2020-01-06 22:00:00 -- -- -- -- -- -- -- -- --
2020-01-06 21:00:00 -- -- -- -- -- -- -- -- --
2020-01-06 20:00:00 -- -- -- -- -- -- -- -- --
2020-01-06 19:00:00 -- -- -- -- -- -- -- -- --
2020-01-06 18:00:00 -- -- -- -- -- -- -- -- --
2020-01-06 17:00:00 -- -- -- -- -- -- -- -- --
2020-01-06 16:00:00 -- -- -- -- -- -- -- -- --
2020-01-06 15:00:00 -- -- -- -- -- -- -- -- --
2020-01-06 14:00:00 -- -- -- -- -- -- -- -- --
2020-01-06 13:00:00 -- -- -- -- -- -- -- -- --
2020-01-06 12:00:00 -- -- -- -- -- -- -- -- --
2020-01-06 11:00:00 -- -- -- -- -- -- -- -- --
2020-01-06 10:00:00 -- -- -- -- -- -- -- -- --